Time;durP1;ratioP1;P1;durP2;ratioP2;P2;SDS_P1;SDS_P2;PMS_P1;PMS_P2;Temp;Humidity;BMP_temperature;BMP_pressure;BME280_temperature;BME280_humidity;BME280_pressure;Samples;Min_cycle;Max_cycle;Signal;HPM_P1;HPM_P2
2023/04/19 00:01:48;;;;;;;10.68;5.82;;;8.70;99.90;;;;;;5010976;28;20049;-85
2023/04/19 00:04:14;;;;;;;9.65;5.70;;;8.60;99.90;;;;;;5039232;28;20407;-85
2023/04/19 00:06:41;;;;;;;10.65;6.05;;;8.50;99.90;;;;;;5026880;28;20048;-86
2023/04/19 00:09:08;;;;;;;11.70;6.32;;;8.50;99.90;;;;;;5011329;28;20053;-84
2023/04/19 00:11:33;;;;;;;10.07;6.10;;;8.50;99.90;;;;;;5026600;28;20486;-83
2023/04/19 00:13:59;;;;;;;12.10;6.45;;;8.50;99.90;;;;;;5034774;28;20045;-85
2023/04/19 00:16:25;;;;;;;11.35;5.57;;;8.50;99.90;;;;;;5023824;28;20478;-83
2023/04/19 00:18:51;;;;;;;10.90;5.75;;;8.50;99.90;;;;;;5010308;28;20041;-84
2023/04/19 00:21:16;;;;;;;12.45;6.05;;;8.40;99.90;;;;;;5025824;28;20075;-84
2023/04/19 00:23:42;;;;;;;10.70;6.05;;;8.40;99.90;;;;;;5009353;28;20037;-84
2023/04/19 00:26:10;;;;;;;11.23;6.22;;;8.50;99.90;;;;;;5022113;28;20045;-84
2023/04/19 00:28:36;;;;;;;10.75;6.13;;;8.40;99.90;;;;;;5015616;28;20081;-84
2023/04/19 00:31:02;;;;;;;14.02;6.60;;;8.40;99.90;;;;;;5022063;28;20077;-84
2023/04/19 00:33:27;;;;;;;11.25;6.63;;;8.40;99.90;;;;;;5022382;28;20064;-82
2023/04/19 00:35:53;;;;;;;11.02;6.97;;;8.40;99.90;;;;;;5004084;28;21036;-84
2023/04/19 00:38:19;;;;;;;12.50;6.93;;;8.80;99.90;;;;;;5044801;28;20053;-84
2023/04/19 00:40:45;;;;;;;11.88;6.50;;;8.30;99.90;;;;;;4997964;28;20049;-85
2023/04/19 00:43:15;;;;;;;11.98;7.18;;;8.30;99.90;;;;;;5020294;28;20052;-84
2023/04/19 00:45:44;;;;;;;9.32;6.07;;;8.30;99.90;;;;;;5021649;28;20506;-84
2023/04/19 00:48:14;;;;;;;13.77;6.88;;;8.30;99.90;;;;;;5030817;28;20111;-85
2023/04/19 00:50:42;;;;;;;13.15;6.68;;;8.30;99.90;;;;;;5016002;28;20087;-85
2023/04/19 00:53:08;;;;;;;11.52;6.63;;;8.30;99.90;;;;;;5024745;28;20050;-85
2023/04/19 00:55:34;;;;;;;12.60;6.93;;;8.30;99.90;;;;;;5006679;28;20079;-85
2023/04/19 00:58:00;;;;;;;17.50;8.13;;;8.20;99.90;;;;;;5028841;28;20073;-86
2023/04/19 01:00:26;;;;;;;13.95;7.28;;;8.20;99.90;;;;;;5027110;28;20037;-86
2023/04/19 01:02:52;;;;;;;13.73;7.72;;;8.20;99.90;;;;;;5025690;28;21653;-85
2023/04/19 01:05:18;;;;;;;13.60;6.93;;;8.20;99.90;;;;;;5010727;28;20049;-87
2023/04/19 01:07:44;;;;;;;12.43;6.82;;;8.20;99.90;;;;;;5025180;28;20044;-86
2023/04/19 01:10:10;;;;;;;13.15;7.45;;;8.20;99.90;;;;;;5010137;28;20045;-86
2023/04/19 01:12:36;;;;;;;14.13;7.40;;;8.20;99.90;;;;;;5006289;28;20057;-84
2023/04/19 01:15:03;;;;;;;13.55;7.40;;;8.30;99.90;;;;;;5013246;28;22281;-84
2023/04/19 01:17:31;;;;;;;15.25;8.18;;;8.10;99.90;;;;;;5017655;28;20056;-85
2023/04/19 01:20:02;;;;;;;13.43;7.78;;;8.10;99.90;;;;;;5018032;28;20045;-85
2023/04/19 01:22:29;;;;;;;13.55;7.93;;;8.70;99.90;;;;;;5018377;28;20053;-85
2023/04/19 01:24:56;;;;;;;13.40;7.75;;;8.10;99.90;;;;;;5054941;28;20069;-86
2023/04/19 01:27:22;;;;;;;14.52;8.00;;;8.10;99.90;;;;;;5034384;28;20052;-86
2023/04/19 01:29:48;;;;;;;16.13;8.55;;;8.10;99.90;;;;;;5030681;28;20045;-85
2023/04/19 01:32:14;;;;;;;14.20;8.75;;;8.10;99.90;;;;;;5025370;28;20063;-86
2023/04/19 01:34:41;;;;;;;12.52;7.85;;;8.10;99.90;;;;;;5028524;28;20111;-84
2023/04/19 01:37:08;;;;;;;16.45;8.40;;;8.10;99.90;;;;;;5027630;28;20041;-84
2023/04/19 01:39:33;;;;;;;16.23;8.48;;;8.10;99.90;;;;;;5012559;28;20108;-84
2023/04/19 01:42:00;;;;;;;13.60;8.35;;;8.20;99.90;;;;;;5012302;28;20045;-84
2023/04/19 01:44:25;;;;;;;16.35;8.45;;;8.10;99.90;;;;;;5028674;28;20052;-84
2023/04/19 01:46:51;;;;;;;15.07;8.57;;;7.90;99.90;;;;;;5006307;28;20205;-84
2023/04/19 01:49:17;;;;;;;17.13;8.95;;;8.00;99.90;;;;;;5027864;28;20094;-85
2023/04/19 01:51:43;;;;;;;16.17;9.27;;;8.00;99.90;;;;;;5013207;28;20140;-84
2023/04/19 01:54:08;;;;;;;15.30;9.15;;;8.00;99.90;;;;;;5012554;28;20118;-82
2023/04/19 01:56:35;;;;;;;14.05;8.65;;;8.00;99.90;;;;;;5028844;28;20041;-85
2023/04/19 01:59:00;;;;;;;17.13;8.38;;;8.00;99.90;;;;;;5051475;28;20029;-84
2023/04/19 02:01:27;;;;;;;15.60;8.90;;;8.00;99.90;;;;;;5056248;28;20029;-85
2023/04/19 02:03:53;;;;;;;14.57;8.80;;;7.90;99.90;;;;;;5055084;28;20029;-84
2023/04/19 02:06:18;;;;;;;15.15;8.90;;;7.90;99.90;;;;;;5036009;28;20386;-86
2023/04/19 02:08:44;;;;;;;17.02;8.50;;;7.90;99.90;;;;;;5028283;28;20049;-86
2023/04/19 02:11:14;;;;;;;15.50;9.07;;;7.80;99.90;;;;;;5012501;28;20052;-84
2023/04/19 02:13:41;;;;;;;17.83;8.43;;;7.90;99.90;;;;;;5028576;28;20049;-85
2023/04/19 02:16:07;;;;;;;16.13;8.57;;;7.80;99.90;;;;;;5026942;28;20148;-84
2023/04/19 02:18:39;;;;;;;17.00;9.00;;;7.70;99.90;;;;;;5027714;28;20049;-85
2023/04/19 02:21:08;;;;;;;15.52;8.18;;;7.70;99.90;;;;;;5010758;28;20057;-85
2023/04/19 02:23:34;;;;;;;16.45;8.75;;;7.70;99.90;;;;;;5026515;28;20049;-84
2023/04/19 02:26:02;;;;;;;13.57;7.65;;;7.70;99.90;;;;;;5027187;28;20033;-87
2023/04/19 02:28:31;;;;;;;17.40;8.95;;;7.60;99.90;;;;;;5042243;28;20495;-84
2023/04/19 02:30:58;;;;;;;15.05;8.35;;;7.60;99.90;;;;;;5025091;28;20037;-84
2023/04/19 02:33:26;;;;;;;16.13;8.25;;;7.60;99.90;;;;;;5009804;28;20146;-85
2023/04/19 02:35:51;;;;;;;14.77;7.18;;;7.60;99.90;;;;;;5037995;28;20048;-83
2023/04/19 02:38:17;;;;;;;16.27;7.15;;;7.50;99.90;;;;;;5010838;28;20214;-83
2023/04/19 02:40:43;;;;;;;12.88;7.00;;;7.50;99.90;;;;;;5030186;28;20050;-84
2023/04/19 02:43:09;;;;;;;11.63;6.60;;;7.50;99.90;;;;;;5026966;28;20091;-86
2023/04/19 02:45:36;;;;;;;17.77;6.82;;;7.10;99.90;;;;;;5028675;28;20053;-85
2023/04/19 02:48:01;;;;;;;14.15;6.97;;;7.70;99.90;;;;;;5025864;28;20049;-84
2023/04/19 02:50:27;;;;;;;12.63;6.25;;;7.40;99.90;;;;;;5032038;28;20059;-82
2023/04/19 02:52:53;;;;;;;13.10;6.22;;;7.40;99.90;;;;;;5009617;28;20041;-84
2023/04/19 02:55:19;;;;;;;10.60;5.80;;;7.40;99.90;;;;;;5016255;28;20387;-84
2023/04/19 02:57:44;;;;;;;14.32;6.32;;;7.40;99.90;;;;;;5020165;28;20034;-83
2023/04/19 03:00:11;;;;;;;12.73;6.45;;;7.40;99.90;;;;;;5010908;28;20473;-85
2023/04/19 03:02:38;;;;;;;12.85;5.82;;;7.30;99.90;;;;;;5010362;28;20038;-84
2023/04/19 03:05:05;;;;;;;10.88;5.82;;;7.30;99.90;;;;;;5023700;28;20033;-85
2023/04/19 03:07:31;;;;;;;10.60;5.53;;;7.20;99.90;;;;;;5036382;28;20045;-83
2023/04/19 03:09:56;;;;;;;10.77;5.88;;;7.20;99.90;;;;;;5030346;28;20041;-84
2023/04/19 03:12:22;;;;;;;10.50;5.47;;;7.20;99.90;;;;;;5012599;28;20056;-85
2023/04/19 03:14:48;;;;;;;11.00;5.55;;;7.10;99.90;;;;;;5027547;28;20072;-84
2023/04/19 03:17:14;;;;;;;10.55;6.30;;;7.10;99.90;;;;;;5028416;28;20507;-85
2023/04/19 03:19:40;;;;;;;11.93;5.88;;;7.10;99.90;;;;;;5027802;28;20573;-86
2023/04/19 03:22:05;;;;;;;10.90;5.35;;;7.10;99.90;;;;;;5026671;28;20116;-84
2023/04/19 03:24:31;;;;;;;9.63;5.10;;;7.10;99.90;;;;;;5025719;28;20477;-84
2023/04/19 03:26:57;;;;;;;13.63;5.68;;;7.00;99.90;;;;;;5027113;28;20053;-84
2023/04/19 03:29:24;;;;;;;9.90;5.55;;;7.00;99.90;;;;;;5008748;28;20049;-85
2023/04/19 03:31:50;;;;;;;10.45;4.97;;;7.00;99.90;;;;;;5011450;28;20084;-84
2023/04/19 03:34:15;;;;;;;11.40;5.55;;;7.00;99.90;;;;;;5003981;28;20077;-84
2023/04/19 03:36:41;;;;;;;9.77;5.38;;;6.90;99.90;;;;;;5025230;28;20371;-84
2023/04/19 03:39:07;;;;;;;9.93;5.15;;;6.90;99.90;;;;;;5007326;28;20083;-84
2023/04/19 03:41:33;;;;;;;13.32;4.78;;;6.90;99.90;;;;;;5026657;28;20072;-83
2023/04/19 03:43:59;;;;;;;10.48;5.00;;;6.90;99.90;;;;;;5024402;28;20099;-84
2023/04/19 03:46:25;;;;;;;10.43;5.35;;;6.80;99.90;;;;;;5011457;28;20284;-83
2023/04/19 03:48:51;;;;;;;10.82;5.43;;;6.80;99.90;;;;;;5008252;28;20061;-83
2023/04/19 03:51:17;;;;;;;11.75;5.22;;;6.80;99.90;;;;;;5025205;28;20395;-82
2023/04/19 03:53:42;;;;;;;12.02;5.45;;;6.80;99.90;;;;;;5025922;28;20091;-83
2023/04/19 03:56:08;;;;;;;10.10;5.32;;;6.70;99.90;;;;;;5009484;28;20926;-84
2023/04/19 03:58:34;;;;;;;12.13;5.35;;;6.70;99.90;;;;;;5024377;28;20096;-84
2023/04/19 04:01:00;;;;;;;11.32;5.80;;;6.70;99.90;;;;;;5026008;28;20053;-83
2023/04/19 04:03:26;;;;;;;11.10;5.13;;;6.60;99.90;;;;;;5007840;28;20060;-82
2023/04/19 04:05:52;;;;;;;14.23;6.53;;;7.20;99.90;;;;;;5059780;28;20054;-83
2023/04/19 04:08:17;;;;;;;11.85;5.75;;;6.60;99.90;;;;;;5024194;28;20110;-84
2023/04/19 04:10:43;;;;;;;12.90;5.43;;;6.70;99.90;;;;;;5025659;28;20076;-82
2023/04/19 04:13:09;;;;;;;12.50;5.65;;;6.60;99.90;;;;;;5025368;28;20045;-81
2023/04/19 04:15:35;;;;;;;9.43;5.13;;;7.00;99.90;;;;;;5011517;28;20424;-81
2023/04/19 04:18:01;;;;;;;11.65;5.25;;;6.50;99.90;;;;;;5029255;28;20041;-84
2023/04/19 04:20:29;;;;;;;10.70;5.03;;;6.50;99.90;;;;;;5008095;28;20052;-83
2023/04/19 04:22:55;;;;;;;11.95;5.53;;;6.50;99.90;;;;;;5028155;28;20418;-81
2023/04/19 04:25:20;;;;;;;12.90;4.90;;;6.50;99.90;;;;;;5024458;28;20042;-83
2023/04/19 04:27:49;;;;;;;14.18;5.20;;;6.50;99.90;;;;;;5029596;28;20057;-82
2023/04/19 04:30:16;;;;;;;11.93;4.53;;;6.40;99.90;;;;;;5026872;28;20060;-84
2023/04/19 04:32:42;;;;;;;9.77;4.55;;;6.40;99.90;;;;;;5022310;28;20578;-85
2023/04/19 04:35:09;;;;;;;11.07;5.10;;;6.40;99.90;;;;;;5044216;28;20115;-83
2023/04/19 04:37:35;;;;;;;10.88;4.85;;;6.40;99.90;;;;;;5011351;28;20061;-84
2023/04/19 04:40:05;;;;;;;10.45;5.00;;;7.00;99.90;;;;;;5040796;28;20666;-83
2023/04/19 04:42:32;;;;;;;10.05;4.90;;;6.40;99.90;;;;;;5013612;28;20192;-83
2023/04/19 04:45:20;;;;;;;9.30;4.68;;;6.40;99.90;;;;;;5020903;28;20195;-82
2023/04/19 04:47:46;;;;;;;8.05;4.47;;;6.30;99.90;;;;;;5031602;28;20057;-82
2023/04/19 04:50:14;;;;;;;12.38;4.80;;;6.40;99.90;;;;;;5018866;28;20745;-83
2023/04/19 04:52:40;;;;;;;11.25;4.63;;;6.30;99.90;;;;;;5006496;28;20050;-82
2023/04/19 04:55:06;;;;;;;10.52;4.88;;;6.50;99.90;;;;;;5010650;28;20045;-83
2023/04/19 04:57:32;;;;;;;9.40;4.32;;;6.20;99.90;;;;;;5023657;28;20049;-82
2023/04/19 04:59:58;;;;;;;11.52;5.13;;;6.20;99.90;;;;;;5027653;28;20042;-82
2023/04/19 05:02:24;;;;;;;10.23;4.80;;;6.20;99.90;;;;;;5020538;28;20054;-82
2023/04/19 05:04:50;;;;;;;8.85;4.63;;;6.20;99.90;;;;;;5003885;28;20052;-82
2023/04/19 05:07:16;;;;;;;9.25;4.55;;;6.90;99.90;;;;;;5005766;28;20053;-83
2023/04/19 05:09:42;;;;;;;10.23;3.97;;;6.20;99.90;;;;;;5014795;28;20045;-82
2023/04/19 05:12:07;;;;;;;8.55;4.40;;;6.90;99.90;;;;;;5010317;28;20038;-82
2023/04/19 05:14:33;;;;;;;10.82;4.10;;;6.20;99.90;;;;;;5010813;28;20049;-84
2023/04/19 05:16:59;;;;;;;9.05;4.00;;;6.30;99.90;;;;;;5013531;28;20057;-82
2023/04/19 05:19:24;;;;;;;10.63;4.22;;;6.40;99.90;;;;;;5006937;28;20042;-83
2023/04/19 05:21:50;;;;;;;10.60;3.92;;;6.60;99.90;;;;;;5038728;28;20033;-85
2023/04/19 05:24:16;;;;;;;8.88;3.90;;;6.80;99.90;;;;;;5007569;28;20045;-84
2023/04/19 05:26:42;;;;;;;7.85;3.95;;;7.10;99.90;;;;;;5008132;28;20495;-84
2023/04/19 05:29:08;;;;;;;9.50;4.03;;;7.90;99.90;;;;;;5008912;28;20049;-84
2023/04/19 05:31:33;;;;;;;8.75;4.05;;;7.90;99.90;;;;;;5038053;28;20410;-85
2023/04/19 05:33:59;;;;;;;8.77;3.63;;;8.30;99.90;;;;;;5010212;28;20064;-83
2023/04/19 05:36:25;;;;;;;8.60;3.83;;;8.60;99.90;;;;;;5007298;28;20049;-84
2023/04/19 05:38:51;;;;;;;6.75;3.42;;;8.70;99.90;;;;;;4995353;28;20044;-85
2023/04/19 05:41:17;;;;;;;9.68;4.07;;;8.80;99.90;;;;;;4991364;28;20770;-84
2023/04/19 05:43:42;;;;;;;8.45;3.78;;;8.60;99.90;;;;;;5006466;28;20045;-85
2023/04/19 05:46:08;;;;;;;7.05;3.15;;;8.50;99.90;;;;;;5008394;28;20755;-84
2023/04/19 05:48:34;;;;;;;9.00;3.42;;;8.40;99.90;;;;;;5016398;28;20041;-84
2023/04/19 05:51:00;;;;;;;9.70;4.32;;;8.30;99.90;;;;;;5008857;28;20128;-83
2023/04/19 05:53:26;;;;;;;10.90;3.65;;;8.30;99.90;;;;;;5007385;28;20729;-84
2023/04/19 05:55:51;;;;;;;9.07;3.08;;;8.40;99.90;;;;;;4995196;28;20073;-85
2023/04/19 05:58:18;;;;;;;6.60;3.13;;;8.40;99.90;;;;;;5017194;28;20080;-82
2023/04/19 06:00:44;;;;;;;7.95;3.38;;;8.40;99.90;;;;;;5023183;28;20049;-85
2023/04/19 06:03:10;;;;;;;7.28;3.20;;;8.30;99.90;;;;;;5021495;28;20042;-83
2023/04/19 06:05:36;;;;;;;8.85;3.75;;;8.40;99.90;;;;;;5006891;28;20081;-84
2023/04/19 06:08:02;;;;;;;7.10;3.05;;;8.00;99.90;;;;;;5036242;28;20069;-85
2023/04/19 06:10:28;;;;;;;6.75;3.30;;;8.00;99.90;;;;;;5023639;28;20824;-85
2023/04/19 06:12:53;;;;;;;7.68;3.20;;;8.00;99.90;;;;;;5018644;28;20048;-82
2023/04/19 06:15:19;;;;;;;9.50;3.25;;;8.00;99.90;;;;;;5050973;28;20045;-84
2023/04/19 06:17:45;;;;;;;8.00;3.17;;;7.90;99.90;;;;;;5006768;28;20069;-85
2023/04/19 06:20:11;;;;;;;8.10;3.25;;;7.90;99.90;;;;;;4996002;28;20058;-87
2023/04/19 06:22:47;;;;;;;7.53;3.20;;;7.90;99.90;;;;;;5042030;28;20199;-84
2023/04/19 06:25:13;;;;;;;6.22;3.10;;;8.00;99.90;;;;;;5023385;28;20049;-84
2023/04/19 06:27:39;;;;;;;8.68;3.00;;;8.00;99.90;;;;;;5027730;28;20196;-84
2023/04/19 06:30:06;;;;;;;6.35;2.78;;;8.00;99.90;;;;;;5055648;28;20041;-82
2023/04/19 06:32:32;;;;;;;7.70;2.92;;;8.20;99.90;;;;;;5005343;28;20046;-81
2023/04/19 06:34:58;;;;;;;8.15;2.67;;;8.30;99.90;;;;;;5013257;28;20049;-82
2023/04/19 06:37:23;;;;;;;6.35;2.75;;;8.50;99.90;;;;;;5025860;28;20434;-83
2023/04/19 06:39:49;;;;;;;6.70;2.80;;;8.70;99.90;;;;;;5031228;28;20708;-86
2023/04/19 06:42:18;;;;;;;5.93;2.80;;;8.80;99.90;;;;;;5037988;28;20042;-85
2023/04/19 06:44:45;;;;;;;7.15;3.20;;;9.00;99.90;;;;;;5045172;28;20128;-87
2023/04/19 06:47:14;;;;;;;5.15;2.60;;;9.00;99.90;;;;;;5049061;28;20594;-85
2023/04/19 06:49:39;;;;;;;6.28;2.67;;;9.00;99.90;;;;;;5028657;28;20053;-85
2023/04/19 06:52:05;;;;;;;5.93;2.60;;;9.20;99.90;;;;;;5053857;28;20048;-86
2023/04/19 06:54:31;;;;;;;6.22;2.67;;;9.20;99.90;;;;;;5009724;28;20498;-83
2023/04/19 06:56:56;;;;;;;7.80;2.50;;;9.00;99.90;;;;;;5008476;28;20037;-85
2023/04/19 06:59:24;;;;;;;8.23;2.63;;;9.10;99.90;;;;;;5024276;28;20786;-83
2023/04/19 07:01:49;;;;;;;6.18;2.38;;;9.10;99.90;;;;;;5029151;28;20124;-86
2023/04/19 07:04:16;;;;;;;6.63;3.17;;;9.10;99.90;;;;;;5011427;28;20184;-86
2023/04/19 07:06:42;;;;;;;7.88;3.03;;;9.20;99.90;;;;;;5024881;28;20045;-87
2023/04/19 07:09:08;;;;;;;7.78;3.75;;;9.20;99.90;;;;;;5025012;28;20044;-87
2023/04/19 07:11:33;;;;;;;5.80;1.80;;;9.30;99.90;;;;;;5025227;28;20417;-86
2023/04/19 07:14:02;;;;;;;6.95;1.80;;;9.60;99.90;;;;;;5009313;28;20125;-85
2023/04/19 07:16:28;;;;;;;6.32;1.90;;;9.40;99.90;;;;;;5027607;28;20147;-86
2023/04/19 07:18:53;;;;;;;3.90;1.55;;;9.50;99.90;;;;;;5027863;28;20143;-81
2023/04/19 07:21:19;;;;;;;5.05;1.80;;;9.60;99.90;;;;;;5027811;28;20044;-82
2023/04/19 07:23:45;;;;;;;3.70;1.50;;;9.70;99.90;;;;;;5026628;28;20056;-84
2023/04/19 07:26:11;;;;;;;3.05;1.30;;;9.70;99.90;;;;;;5059722;28;20554;-84
2023/04/19 07:28:38;;;;;;;5.00;2.00;;;9.80;99.90;;;;;;5025397;28;20084;-83
2023/04/19 07:31:04;;;;;;;3.92;1.67;;;9.90;99.90;;;;;;5026429;28;20459;-84
2023/04/19 07:33:31;;;;;;;5.10;1.77;;;10.00;99.90;;;;;;5010225;28;20129;-85
2023/04/19 07:35:56;;;;;;;3.33;1.50;;;10.10;99.90;;;;;;5026396;28;20140;-83
2023/04/19 07:38:23;;;;;;;4.45;1.83;;;10.10;99.90;;;;;;5025238;28;20107;-83
2023/04/19 07:40:49;;;;;;;3.70;1.70;;;10.20;99.90;;;;;;5022181;28;20111;-84
2023/04/19 07:43:15;;;;;;;5.40;1.50;;;10.30;99.50;;;;;;5025017;28;20053;-82
2023/04/19 07:45:41;;;;;;;5.93;1.77;;;10.20;99.40;;;;;;5007165;28;20053;-83
2023/04/19 07:48:07;;;;;;;4.20;1.58;;;10.30;99.50;;;;;;5026240;28;20048;-82
2023/04/19 07:50:32;;;;;;;4.57;1.75;;;10.30;99.20;;;;;;5022985;28;20126;-83
2023/04/19 07:52:58;;;;;;;5.22;1.98;;;10.40;99.20;;;;;;5055924;28;20399;-83
2023/04/19 07:55:24;;;;;;;5.18;2.10;;;10.40;99.30;;;;;;5008161;28;20056;-86
2023/04/19 07:57:50;;;;;;;4.18;1.63;;;10.50;98.20;;;;;;5008121;28;20658;-81
2023/04/19 08:00:17;;;;;;;5.68;2.13;;;10.50;98.80;;;;;;5026382;28;20099;-83
2023/04/19 08:02:46;;;;;;;7.45;2.13;;;10.60;98.70;;;;;;5025162;28;20041;-86
2023/04/19 08:05:16;;;;;;;4.50;1.80;;;10.60;97.90;;;;;;5026656;28;20045;-83
2023/04/19 08:07:42;;;;;;;5.63;2.03;;;10.70;96.60;;;;;;5019545;28;20037;-81
2023/04/19 08:10:09;;;;;;;8.10;2.25;;;10.70;96.50;;;;;;5006397;28;20410;-83
2023/04/19 08:12:35;;;;;;;5.63;2.00;;;10.70;96.50;;;;;;5024122;28;20076;-85
2023/04/19 08:15:02;;;;;;;6.93;1.63;;;10.80;96.50;;;;;;5039878;28;20102;-84
2023/04/19 08:17:28;;;;;;;4.43;1.77;;;10.80;97.00;;;;;;5023537;28;20055;-86
2023/04/19 08:19:54;;;;;;;5.57;1.90;;;10.90;95.80;;;;;;5024315;28;20669;-82
2023/04/19 08:22:20;;;;;;;6.88;1.70;;;10.90;95.80;;;;;;5022187;28;20041;-84
2023/04/19 08:24:49;;;;;;;5.60;1.80;;;11.00;96.10;;;;;;5019842;28;20121;-82
2023/04/19 08:27:14;;;;;;;4.35;1.45;;;11.00;95.80;;;;;;5054656;28;20107;-85
2023/04/19 08:29:40;;;;;;;6.05;1.90;;;11.10;96.00;;;;;;5022100;28;20038;-84
2023/04/19 08:32:06;;;;;;;6.40;1.67;;;11.20;97.20;;;;;;5030165;28;20076;-86
2023/04/19 08:34:36;;;;;;;6.07;1.85;;;11.30;96.60;;;;;;5019991;28;20069;-87
2023/04/19 08:37:03;;;;;;;4.95;1.60;;;11.30;95.30;;;;;;5027958;28;20056;-89
2023/04/19 08:39:30;;;;;;;3.45;1.40;;;11.40;95.60;;;;;;5026395;28;20081;-87
2023/04/19 08:41:56;;;;;;;5.68;1.60;;;11.40;96.10;;;;;;5009489;28;20521;-86
2023/04/19 08:44:24;;;;;;;3.58;1.60;;;11.50;95.30;;;;;;5023996;28;20049;-86
2023/04/19 08:46:50;;;;;;;3.97;1.30;;;11.50;95.00;;;;;;5007818;28;20203;-83
2023/04/19 08:49:19;;;;;;;4.80;1.70;;;11.50;95.10;;;;;;5020490;28;20588;-84
2023/04/19 08:51:49;;;;;;;4.13;1.35;;;11.60;94.80;;;;;;5020937;28;20421;-84
2023/04/19 08:54:15;;;;;;;4.25;2.00;;;11.60;94.30;;;;;;5025552;28;20607;-83
2023/04/19 08:56:41;;;;;;;4.60;1.40;;;11.70;94.60;;;;;;5023342;28;20045;-83
2023/04/19 08:59:07;;;;;;;5.40;1.30;;;11.70;95.10;;;;;;5026276;28;20052;-81
2023/04/19 09:01:32;;;;;;;4.13;1.50;;;11.80;95.00;;;;;;5026245;28;20045;-85
2023/04/19 09:03:58;;;;;;;6.22;1.33;;;11.80;94.80;;;;;;5026246;28;20040;-85
2023/04/19 09:06:26;;;;;;;5.35;1.60;;;11.90;94.90;;;;;;5026586;28;20120;-85
2023/04/19 09:08:57;;;;;;;8.48;2.58;;;12.00;94.60;;;;;;5028508;28;20402;-89
2023/04/19 09:11:38;;;;;;;5.22;1.58;;;12.00;94.30;;;;;;5027083;28;20104;-84
2023/04/19 09:14:09;;;;;;;3.70;1.67;;;12.00;94.40;;;;;;5028225;28;20076;-83
2023/04/19 09:16:36;;;;;;;4.70;1.60;;;12.10;94.50;;;;;;5015138;28;20056;-84
2023/04/19 09:19:02;;;;;;;4.25;1.50;;;12.10;94.20;;;;;;5028482;28;20056;-83
2023/04/19 09:21:29;;;;;;;4.80;1.65;;;12.10;94.40;;;;;;5031856;28;20042;-82
2023/04/19 09:23:55;;;;;;;6.30;1.52;;;12.10;92.60;;;;;;5010553;28;20140;-84
2023/04/19 09:26:21;;;;;;;4.10;1.80;;;12.10;92.50;;;;;;5027587;28;20124;-82
2023/04/19 09:29:06;;;;;;;5.10;1.80;;;12.10;92.70;;;;;;5009988;28;20053;-83
2023/04/19 09:31:34;;;;;;;2.90;1.20;;;12.10;92.50;;;;;;5009540;28;20080;-83
2023/04/19 09:34:14;;;;;;;4.22;1.70;;;12.10;92.20;;;;;;5026095;28;20478;-82
2023/04/19 09:36:40;;;;;;;6.55;1.95;;;12.00;93.20;;;;;;5034853;28;20057;-82
2023/04/19 09:39:06;;;;;;;3.60;1.40;;;12.10;93.80;;;;;;5025885;28;20041;-83
2023/04/19 09:41:33;;;;;;;4.38;1.73;;;12.20;94.00;;;;;;5003822;28;20642;-84
2023/04/19 09:44:14;;;;;;;5.47;1.80;;;12.30;94.40;;;;;;5017974;28;20049;-82
2023/04/19 09:46:41;;;;;;;5.75;1.77;;;12.30;93.50;;;;;;5018617;28;20576;-81
2023/04/19 09:49:19;;;;;;;5.38;1.70;;;12.40;93.80;;;;;;5021878;28;20636;-84
2023/04/19 09:51:46;;;;;;;5.55;1.67;;;12.40;93.10;;;;;;5019171;28;20073;-82
2023/04/19 09:54:14;;;;;;;5.93;1.60;;;12.50;93.00;;;;;;5013726;28;20380;-86
2023/04/19 09:56:40;;;;;;;4.82;1.70;;;12.50;92.60;;;;;;5013072;28;20045;-83
2023/04/19 09:59:07;;;;;;;3.78;1.50;;;12.50;91.90;;;;;;5028574;28;20045;-83
2023/04/19 10:01:44;;;;;;;7.63;1.45;;;12.60;93.00;;;;;;4994368;28;20050;-82
2023/04/19 10:04:12;;;;;;;9.90;1.70;;;12.60;92.10;;;;;;5027921;28;20049;-87
2023/04/19 10:06:40;;;;;;;4.95;1.58;;;12.60;91.70;;;;;;5023654;28;20129;-83
2023/04/19 10:09:07;;;;;;;3.75;1.40;;;12.60;91.00;;;;;;5028859;28;20068;-84
2023/04/19 10:11:40;;;;;;;3.45;1.50;;;12.80;90.90;;;;;;5028325;28;20037;-82
2023/04/19 10:14:10;;;;;;;3.85;1.50;;;12.60;91.10;;;;;;5010107;28;20037;-81
2023/04/19 10:16:37;;;;;;;6.30;1.88;;;12.70;90.70;;;;;;5017358;28;20137;-80
2023/04/19 10:19:07;;;;;;;6.57;1.38;;;12.70;89.30;;;;;;5007444;28;20111;-79
2023/04/19 10:21:33;;;;;;;6.95;1.35;;;12.70;89.70;;;;;;5041252;28;20102;-76
2023/04/19 10:24:00;;;;;;;4.00;1.40;;;12.60;90.30;;;;;;5024717;28;20052;-79
2023/04/19 10:26:26;;;;;;;3.55;1.30;;;12.70;90.10;;;;;;5027404;28;20084;-84
2023/04/19 10:28:58;;;;;;;3.70;1.38;;;12.70;87.10;;;;;;5023532;28;20041;-80
2023/04/19 10:31:25;;;;;;;2.75;1.23;;;12.60;88.50;;;;;;5003063;28;20075;-82
2023/04/19 10:33:51;;;;;;;5.47;1.27;;;12.60;89.30;;;;;;5016552;28;20091;-81
2023/04/19 10:36:20;;;;;;;4.47;1.10;;;12.70;90.40;;;;;;5057261;28;20060;-84
2023/04/19 10:38:54;;;;;;;5.03;1.38;;;12.80;90.10;;;;;;5029910;28;20084;-88
2023/04/19 10:41:21;;;;;;;2.13;1.10;;;13.10;90.10;;;;;;5062734;28;20057;-83
2023/04/19 10:43:59;;;;;;;3.22;1.35;;;12.90;88.90;;;;;;5008134;28;20037;-86
2023/04/19 10:46:24;;;;;;;4.00;1.15;;;12.90;90.40;;;;;;5012101;28;20048;-84
2023/04/19 10:48:57;;;;;;;5.55;1.35;;;12.90;90.30;;;;;;5030119;28;20049;-80
2023/04/19 10:51:26;;;;;;;5.13;1.30;;;12.90;90.30;;;;;;5025987;28;20046;-82
2023/04/19 10:53:59;;;;;;;5.15;1.48;;;13.00;89.70;;;;;;5012185;28;20081;-81
2023/04/19 10:56:39;;;;;;;4.93;1.30;;;13.10;90.30;;;;;;5010835;28;20498;-79
2023/04/19 10:59:10;;;;;;;3.80;1.33;;;13.10;90.20;;;;;;5032648;28;20481;-78
2023/04/19 11:01:45;;;;;;;4.32;1.27;;;13.10;90.30;;;;;;5052121;28;20387;-78
2023/04/19 11:04:12;;;;;;;5.43;1.27;;;13.10;89.50;;;;;;5030714;28;20418;-82
2023/04/19 11:07:06;;;;;;;7.13;1.30;;;13.00;88.90;;;;;;5043624;28;20053;-79
2023/04/19 11:09:33;;;;;;;4.20;1.20;;;13.00;87.70;;;;;;5034610;28;20112;-78
2023/04/19 11:12:07;;;;;;;7.50;1.52;;;12.90;87.10;;;;;;5042353;28;20064;-79
2023/04/19 11:14:35;;;;;;;5.22;1.30;;;12.90;85.60;;;;;;5075159;28;20037;-87
2023/04/19 11:17:12;;;;;;;3.88;1.33;;;12.90;86.70;;;;;;5016562;28;20375;-86
2023/04/19 11:19:38;;;;;;;6.93;1.25;;;12.90;88.00;;;;;;5029976;28;20041;-82
2023/04/19 11:22:04;;;;;;;5.05;1.65;;;12.90;87.30;;;;;;5031953;28;20034;-80
2023/04/19 11:24:29;;;;;;;5.85;1.40;;;12.90;88.50;;;;;;5030805;28;20045;-81
2023/04/19 11:26:56;;;;;;;3.33;1.10;;;13.00;87.00;;;;;;5030744;28;20042;-87
2023/04/19 11:29:23;;;;;;;3.10;1.40;;;13.00;87.90;;;;;;5024901;28;20085;-86
2023/04/19 11:31:49;;;;;;;4.85;1.80;;;12.80;88.10;;;;;;5026152;28;20053;-87
2023/04/19 11:34:15;;;;;;;3.90;1.38;;;13.00;88.40;;;;;;5024681;28;20046;-88
2023/04/19 11:36:53;;;;;;;8.48;1.50;;;13.10;90.40;;;;;;5007905;28;20045;-83
2023/04/19 11:39:20;;;;;;;4.43;1.80;;;13.20;90.20;;;;;;5025346;28;20052;-86
2023/04/19 11:41:46;;;;;;;4.20;1.23;;;13.30;90.10;;;;;;5030543;28;20105;-85
2023/04/19 11:44:18;;;;;;;6.22;1.50;;;13.30;90.00;;;;;;5025206;28;20116;-87
2023/04/19 11:46:57;;;;;;;4.35;1.40;;;13.20;89.10;;;;;;5004191;28;20045;-82
2023/04/19 11:49:28;;;;;;;4.75;1.52;;;13.20;90.20;;;;;;5055712;28;20056;-82
2023/04/19 11:51:59;;;;;;;4.75;1.58;;;13.20;89.90;;;;;;5023247;28;20045;-80
2023/04/19 11:54:25;;;;;;;5.50;1.90;;;13.20;90.60;;;;;;5012998;28;20053;-83
2023/04/19 11:57:06;;;;;;;5.88;1.73;;;13.30;90.30;;;;;;5024439;28;20045;-82
2023/04/19 11:59:34;;;;;;;3.85;1.55;;;13.20;90.30;;;;;;5006570;28;20041;-81
2023/04/19 12:02:07;;;;;;;5.35;1.70;;;13.20;90.00;;;;;;5014694;28;20089;-79
2023/04/19 12:04:34;;;;;;;3.85;1.48;;;13.20;89.80;;;;;;5015743;28;20485;-86
2023/04/19 12:07:01;;;;;;;4.78;2.03;;;13.20;90.40;;;;;;5022930;28;20049;-88
2023/04/19 12:09:26;;;;;;;6.43;2.25;;;13.20;90.40;;;;;;5022504;28;20041;-82
2023/04/19 12:11:52;;;;;;;4.43;1.70;;;13.20;90.60;;;;;;5019918;28;20038;-84
2023/04/19 12:14:21;;;;;;;4.85;1.80;;;13.20;91.00;;;;;;5052028;28;20116;-84
2023/04/19 12:17:06;;;;;;;5.85;1.70;;;13.30;89.50;;;;;;5022564;28;20052;-83
2023/04/19 12:19:40;;;;;;;3.80;2.00;;;13.20;89.10;;;;;;5003766;28;20136;-83
2023/04/19 12:22:22;;;;;;;5.63;1.98;;;13.20;90.00;;;;;;5037182;28;20068;-80
2023/04/19 12:24:52;;;;;;;7.75;1.63;;;13.20;90.70;;;;;;5036865;28;20049;-80
2023/04/19 12:27:19;;;;;;;6.05;2.17;;;13.20;91.00;;;;;;5003011;28;20160;-81
2023/04/19 12:29:45;;;;;;;8.07;3.33;;;13.30;90.40;;;;;;5022198;28;20103;-83
2023/04/19 12:32:10;;;;;;;6.72;2.80;;;13.20;92.70;;;;;;5009643;28;20133;-82
2023/04/19 12:34:37;;;;;;;5.60;2.40;;;13.20;93.30;;;;;;5024950;28;20144;-84
2023/04/19 12:37:03;;;;;;;8.57;2.88;;;13.20;93.00;;;;;;5022589;28;20501;-83
2023/04/19 12:39:30;;;;;;;8.70;3.45;;;13.20;93.00;;;;;;4988905;28;20061;-83
2023/04/19 12:41:56;;;;;;;12.32;3.03;;;13.10;93.70;;;;;;5021568;28;20418;-85
2023/04/19 12:44:22;;;;;;;7.35;3.33;;;13.10;94.10;;;;;;5024050;28;20425;-86
2023/04/19 12:46:49;;;;;;;10.63;3.40;;;13.10;94.70;;;;;;5021442;28;20053;-82
2023/04/19 12:49:18;;;;;;;8.50;3.70;;;13.10;94.70;;;;;;5020935;28;20592;-84